createdAt,value
2019-01-11T00:04:49.014Z,29.37
2019-01-11T00:07:58.499Z,26.55
2019-01-11T00:11:00.383Z,29.15
2019-01-11T00:14:02.612Z,28.15
2019-01-11T00:17:12.099Z,28.42
2019-01-11T00:20:14.042Z,28.90
2019-01-11T00:23:14.483Z,26.97
2019-01-11T00:26:23.882Z,25.45
2019-01-11T00:29:24.264Z,23.07
2019-01-11T00:32:33.677Z,24.87
2019-01-11T00:35:35.896Z,26.35
2019-01-11T00:38:45.303Z,24.60
2019-01-11T00:41:47.514Z,27.02
2019-01-11T00:44:56.681Z,25.08
2019-01-11T00:47:58.890Z,25.25
2019-01-11T00:51:01.031Z,22.77
2019-01-11T00:54:10.430Z,23.87
2019-01-11T00:57:12.925Z,22.60
2019-01-11T01:00:24.111Z,21.45
2019-01-11T01:03:26.967Z,23.02
2019-01-11T01:06:36.474Z,25.30
2019-01-11T01:09:39.088Z,20.57
2019-01-11T01:12:41.427Z,21.62
2019-01-11T01:15:50.834Z,22.13
2019-01-11T01:18:51.273Z,19.07
2019-01-11T01:22:00.766Z,19.10
2019-01-11T01:25:01.191Z,19.87
2019-01-11T01:28:03.595Z,21.42
2019-01-11T01:31:12.998Z,18.92
2019-01-11T01:34:15.050Z,21.77
2019-01-11T01:37:24.558Z,18.70
2019-01-11T01:40:26.458Z,18.77
2019-01-11T01:43:35.975Z,21.20
2019-01-11T01:46:38.637Z,23.35
2019-01-11T01:49:28.785Z,20.62
2019-01-11T01:52:38.186Z,19.62
2019-01-11T01:55:40.138Z,20.70
2019-01-11T01:58:49.667Z,23.90
2019-01-11T02:01:51.839Z,19.05
2019-01-11T02:04:54.526Z,17.55
2019-01-11T02:11:27.034Z,17.70
2019-01-11T02:14:36.533Z,18.40
2019-01-11T02:17:26.601Z,18.15
2019-01-11T02:20:37.656Z,18.17
2019-01-11T02:23:39.570Z,16.20
2019-01-11T02:26:39.999Z,16.82
2019-01-11T02:29:49.401Z,16.85
2019-01-11T02:32:52.932Z,18.87
2019-01-11T02:36:02.797Z,19.10
2019-01-11T02:39:05.956Z,18.10
2019-01-11T02:42:07.867Z,17.50
2019-01-11T02:49:05.571Z,15.65
2019-01-11T02:52:08.146Z,15.68
2019-01-11T02:55:17.551Z,18.05
2019-01-11T02:58:20.148Z,18.05
2019-01-11T03:01:29.546Z,20.40
2019-01-11T03:04:32.089Z,19.15
2019-01-11T03:07:41.484Z,17.75
2019-01-11T03:10:43.977Z,19.17
2019-01-11T03:13:53.042Z,17.98
2019-01-11T03:17:04.929Z,22.07
2019-01-11T03:20:35.332Z,20.95
2019-01-11T03:23:37.669Z,29.25
2019-01-11T03:26:40.401Z,21.48
2019-01-11T03:29:49.795Z,23.70
2019-01-11T03:32:52.400Z,23.52
2019-01-11T03:36:01.892Z,22.05
2019-01-11T03:39:02.291Z,23.98
2019-01-11T03:42:05.794Z,28.23
2019-01-11T03:45:36.096Z,28.12
2019-01-11T03:48:38.084Z,24.45
2019-01-11T03:51:47.588Z,26.60
2019-01-11T03:54:49.652Z,26.30
2019-01-11T03:57:50.147Z,27.00
2019-01-11T04:00:59.546Z,25.72
2019-01-11T04:04:02.217Z,28.37
2019-01-11T04:07:11.623Z,28.12
2019-01-11T04:10:18.182Z,30.57
2019-01-11T04:16:33.987Z,32.30
2019-01-11T04:19:43.484Z,36.03
2019-01-11T04:22:45.559Z,30.80
2019-01-11T04:25:54.971Z,31.40
2019-01-11T04:28:56.855Z,33.13
2019-01-11T04:32:06.253Z,31.60
2019-01-11T04:35:08.510Z,35.85
2019-01-11T04:38:17.989Z,31.95
2019-01-11T04:41:19.921Z,32.38
2019-01-11T04:44:22.530Z,38.25
2019-01-11T04:47:31.935Z,34.45
2019-01-11T04:50:32.342Z,37.60
2019-01-11T04:53:41.742Z,31.45
2019-01-11T04:56:42.291Z,43.68
2019-01-11T04:59:51.693Z,42.40
2019-01-11T05:02:53.669Z,39.95
2019-01-11T05:09:11.070Z,35.65
2019-01-11T05:12:20.567Z,35.17
2019-01-11T05:15:22.776Z,40.28
2019-01-11T05:18:32.271Z,46.95
2019-01-11T05:21:34.497Z,52.53
2019-01-11T05:24:34.962Z,39.03
2019-01-11T05:27:44.377Z,37.17
2019-01-11T05:30:46.746Z,44.05
2019-01-11T05:37:10.452Z,53.90
2019-01-11T05:40:13.854Z,53.25
2019-01-11T05:43:23.259Z,47.05
2019-01-11T05:46:25.197Z,45.25
2019-01-11T05:49:34.605Z,43.20
2019-01-11T05:52:34.978Z,52.03
2019-01-11T05:56:03.524Z,55.95
2019-01-11T05:59:04.689Z,54.70
2019-01-11T06:02:07.033Z,48.05
2019-01-11T06:05:16.437Z,70.00
2019-01-11T06:08:20.153Z,44.83
2019-01-11T06:11:29.653Z,48.83
2019-01-11T06:14:32.963Z,55.30
2019-01-11T06:17:35.573Z,47.73
2019-01-11T06:20:44.983Z,61.40
2019-01-11T06:23:47.097Z,47.23
2019-01-11T06:26:56.502Z,47.03
2019-01-11T06:29:59.170Z,43.52
2019-01-11T06:36:04.481Z,56.15
2019-01-11T06:39:13.984Z,65.55
2019-01-11T06:42:17.534Z,56.63
2019-01-11T06:45:20.078Z,57.60
2019-01-11T06:51:39.036Z,54.33
2019-01-11T06:54:48.531Z,59.73
2019-01-11T06:57:50.871Z,60.00
2019-01-11T07:00:53.119Z,61.95
2019-01-11T07:07:10.113Z,47.50
2019-01-11T07:13:48.260Z,50.63
2019-01-11T07:20:06.752Z,53.48
2019-01-11T07:23:16.158Z,45.17
2019-01-11T07:26:18.203Z,46.92
2019-01-11T07:29:27.604Z,47.23
2019-01-11T07:32:29.510Z,44.67
2019-01-11T07:38:32.009Z,55.63
2019-01-11T07:41:41.516Z,44.63
2019-01-11T07:44:44.221Z,57.65
2019-01-11T07:47:46.461Z,47.70
2019-01-11T07:50:55.891Z,51.77
2019-01-11T07:53:58.450Z,49.08
2019-01-11T07:57:00.677Z,50.15
2019-01-11T08:00:03.773Z,58.75
2019-01-11T08:03:06.366Z,56.40
2019-01-11T08:06:15.769Z,67.10
2019-01-11T08:09:17.676Z,62.05
2019-01-11T08:12:27.080Z,60.52
2019-01-11T08:15:29.683Z,61.55
2019-01-11T08:21:47.287Z,47.85
2019-01-11T08:27:50.071Z,40.23
2019-01-11T08:30:59.586Z,48.38
2019-01-11T08:34:01.798Z,67.72
2019-01-11T08:37:05.248Z,36.75
2019-01-11T08:40:14.827Z,52.62
2019-01-11T08:43:17.085Z,50.12
2019-01-11T08:46:19.097Z,30.00
2019-01-11T08:49:28.500Z,42.50
2019-01-11T08:52:30.693Z,27.45
2019-01-11T08:58:47.182Z,25.68
2019-01-11T09:05:04.892Z,24.82
2019-01-11T09:11:21.655Z,23.92
2019-01-11T09:17:22.039Z,25.60
2019-01-11T09:20:31.539Z,21.73
2019-01-11T09:23:33.413Z,23.47
2019-01-11T09:26:42.819Z,19.30
2019-01-11T09:29:46.228Z,24.23
2019-01-11T09:32:55.623Z,26.40
2019-01-11T09:36:04.851Z,15.45
2019-01-11T09:39:07.796Z,20.68
2019-01-11T09:42:17.190Z,16.82
2019-01-11T09:45:19.115Z,23.00
2019-01-11T09:48:28.514Z,13.25
2019-01-11T09:51:30.615Z,22.30
2019-01-11T09:54:40.011Z,13.53
2019-01-11T09:57:43.916Z,11.33
2019-01-11T10:00:33.966Z,10.53
2019-01-11T10:03:49.520Z,13.20
2019-01-11T10:06:54.290Z,11.12
2019-01-11T10:13:32.576Z,18.17
2019-01-11T10:16:34.713Z,7.17
2019-01-11T10:19:44.124Z,12.82
2019-01-11T10:22:46.268Z,16.42
2019-01-11T10:25:55.659Z,12.25
2019-01-11T10:28:57.723Z,11.48
2019-01-11T10:35:14.635Z,12.05
2019-01-11T10:41:32.717Z,17.48
2019-01-11T10:44:42.118Z,8.93
2019-01-11T10:47:44.759Z,10.25
2019-01-11T10:50:54.157Z,11.70
2019-01-11T10:53:56.711Z,12.40
2019-01-11T10:57:06.249Z,10.10
2019-01-11T11:00:12.871Z,8.93
2019-01-11T11:03:22.371Z,10.35
2019-01-11T11:06:24.786Z,7.25
2019-01-11T11:09:26.780Z,10.35
2019-01-11T11:12:36.171Z,6.20
2019-01-11T11:15:39.810Z,6.00
2019-01-11T11:18:49.302Z,7.10
2019-01-11T11:21:51.108Z,9.70
2019-01-11T11:24:53.025Z,4.25
2019-01-11T11:28:02.420Z,5.58
2019-01-11T11:31:03.585Z,3.98
2019-01-11T11:34:12.970Z,5.72
2019-01-11T11:37:17.850Z,4.72
2019-01-11T11:43:35.750Z,4.50
2019-01-11T11:46:45.241Z,14.53
2019-01-11T11:49:47.695Z,9.33
2019-01-11T11:52:57.186Z,6.37
2019-01-11T11:55:59.898Z,7.05
2019-01-11T11:59:01.935Z,5.50
2019-01-11T12:02:04.087Z,6.60
2019-01-11T12:05:13.853Z,3.05
2019-01-11T12:08:16.522Z,5.53
2019-01-11T12:11:25.912Z,7.67
2019-01-11T12:14:28.118Z,2.85
2019-01-11T12:17:37.517Z,5.35
2019-01-11T12:20:39.711Z,8.63
2019-01-11T12:26:56.468Z,5.53
2019-01-11T12:30:26.869Z,9.38
2019-01-11T12:33:29.544Z,8.43
2019-01-11T12:36:32.300Z,9.33
2019-01-11T12:39:41.705Z,7.83
2019-01-11T12:42:43.714Z,8.40
2019-01-11T12:45:53.218Z,5.83
2019-01-11T12:48:55.439Z,12.45
2019-01-11T12:51:57.706Z,9.20
2019-01-11T12:55:07.273Z,3.40
2019-01-11T12:58:11.796Z,11.15
2019-01-11T13:01:21.295Z,8.08
2019-01-11T13:04:23.636Z,10.85
2019-01-11T13:07:25.552Z,8.98
2019-01-11T13:10:34.935Z,6.10
2019-01-11T13:13:36.931Z,9.90
2019-01-11T13:16:46.323Z,10.18
2019-01-11T13:19:48.969Z,7.83
2019-01-11T13:22:39.024Z,11.85
2019-01-11T13:25:48.557Z,9.75
2019-01-11T13:28:50.641Z,10.38
2019-01-11T13:31:40.696Z,12.55
2019-01-11T13:34:30.906Z,16.23
2019-01-11T13:37:40.301Z,9.90
2019-01-11T13:40:42.286Z,11.18
2019-01-11T13:43:51.757Z,15.95
2019-01-11T13:46:52.007Z,14.40
2019-01-11T13:49:54.838Z,17.30
2019-01-11T13:56:33.155Z,13.50
2019-01-11T13:59:41.390Z,19.50
2019-01-11T14:02:39.677Z,18.65
2019-01-11T14:05:29.739Z,12.95
2019-01-11T14:08:32.498Z,12.18
2019-01-11T14:11:41.999Z,20.95
2019-01-11T14:14:42.314Z,18.00
2019-01-11T14:17:44.443Z,17.45
2019-01-11T14:20:53.843Z,22.00
2019-01-11T14:23:55.771Z,20.45
2019-01-11T14:27:05.168Z,19.90
2019-01-11T14:30:08.972Z,19.45
2019-01-11T14:33:18.364Z,23.73
2019-01-11T14:36:20.730Z,18.05
2019-01-11T14:39:30.218Z,26.73
2019-01-11T14:42:32.587Z,22.80
2019-01-11T14:45:34.552Z,20.43
2019-01-11T14:48:43.950Z,24.15
2019-01-11T14:51:46.303Z,26.20
2019-01-11T14:54:55.715Z,36.50
2019-01-11T14:57:56.208Z,35.70
2019-01-11T15:01:05.731Z,23.35
2019-01-11T15:04:08.672Z,21.27
2019-01-11T15:07:09.042Z,19.27
2019-01-11T15:10:18.439Z,29.42
2019-01-11T15:13:20.646Z,27.27
2019-01-11T15:16:30.043Z,32.75
2019-01-11T15:19:32.280Z,22.05
2019-01-11T15:22:41.678Z,26.07
2019-01-11T15:25:31.833Z,32.45
2019-01-11T15:28:41.361Z,30.12
2019-01-11T15:31:41.606Z,39.73
2019-01-11T15:34:43.564Z,32.10
2019-01-11T15:37:52.960Z,27.65
2019-01-11T15:40:55.173Z,37.95
2019-01-11T15:44:04.597Z,26.35
2019-01-11T15:47:06.905Z,24.77
2019-01-11T15:50:37.200Z,27.90
2019-01-11T15:53:39.390Z,27.87
2019-01-11T15:59:59.917Z,39.73
2019-01-11T16:03:09.491Z,33.98
2019-01-11T16:06:30.983Z,36.10
2019-01-11T16:10:01.291Z,53.42
2019-01-11T16:13:05.214Z,24.47
2019-01-11T16:16:35.522Z,37.78
2019-01-11T16:19:37.986Z,33.02
2019-01-11T16:22:47.519Z,42.23
2019-01-11T16:25:47.834Z,35.92
2019-01-11T16:28:49.809Z,35.95
2019-01-11T16:31:59.559Z,35.50
2019-01-11T16:35:03.289Z,24.07
2019-01-11T16:38:05.170Z,31.05
2019-01-11T16:41:14.591Z,29.40
2019-01-11T16:44:17.006Z,40.73
2019-01-11T16:47:26.481Z,40.43
2019-01-11T16:50:28.157Z,33.70
2019-01-11T16:53:30.599Z,42.08
2019-01-11T16:56:40.000Z,48.48
2019-01-11T16:59:30.152Z,37.30
2019-01-11T17:02:39.631Z,43.80
2019-01-11T17:05:41.647Z,33.92
2019-01-11T17:08:44.273Z,44.38
2019-01-11T17:11:53.666Z,44.10
2019-01-11T17:14:55.591Z,51.63
2019-01-11T17:21:12.547Z,33.45
2019-01-11T17:27:29.633Z,46.65
2019-01-11T17:30:39.030Z,52.43
2019-01-11T17:33:39.387Z,44.65
2019-01-11T17:36:48.796Z,48.85
2019-01-11T17:39:51.220Z,41.08
2019-01-11T17:46:08.259Z,35.15
2019-01-11T17:49:17.743Z,51.42
2019-01-11T17:52:18.020Z,45.15
2019-01-11T17:58:35.517Z,44.33
2019-01-11T18:01:44.904Z,50.63
2019-01-11T18:04:47.563Z,53.63
2019-01-11T18:07:56.954Z,47.78
2019-01-11T18:10:59.627Z,34.30
2019-01-11T18:14:09.134Z,42.83
2019-01-11T18:17:11.099Z,48.33
2019-01-11T18:20:14.692Z,50.35
2019-01-11T18:26:31.684Z,59.83
2019-01-11T18:29:41.229Z,35.60
2019-01-11T18:32:43.798Z,40.08
2019-01-11T18:35:45.832Z,44.50
2019-01-11T18:38:55.312Z,65.50
2019-01-11T18:41:57.634Z,52.40
2019-01-11T18:44:59.756Z,73.55
2019-01-11T18:48:09.159Z,35.40
2019-01-11T18:51:11.152Z,65.37
2019-01-11T18:57:28.968Z,56.63
2019-01-11T19:00:30.967Z,52.80
2019-01-11T19:03:33.532Z,53.08
2019-01-11T19:06:43.034Z,43.40
2019-01-11T19:09:45.312Z,51.15
2019-01-11T19:12:54.713Z,44.05
2019-01-11T19:15:56.703Z,48.68
2019-01-11T19:22:13.921Z,45.45
2019-01-11T19:25:23.496Z,55.70
2019-01-11T19:28:25.566Z,60.12
2019-01-11T19:31:27.650Z,51.80
2019-01-11T19:37:44.871Z,41.98
2019-01-11T19:40:54.392Z,48.55
2019-01-11T19:43:56.609Z,45.73
2019-01-11T19:46:58.903Z,48.68
2019-01-11T19:50:27.744Z,58.50
2019-01-11T19:53:29.602Z,40.78
2019-01-11T19:56:31.811Z,55.05
2019-01-11T19:59:34.204Z,64.40
2019-01-11T20:05:51.268Z,43.65
2019-01-11T20:09:00.696Z,50.20
2019-01-11T20:12:02.815Z,50.35
2019-01-11T20:18:20.914Z,57.62
2019-01-11T20:21:30.442Z,56.13
2019-01-11T20:24:32.890Z,51.30
2019-01-11T20:27:35.687Z,45.08
2019-01-11T20:30:45.200Z,48.85
2019-01-11T20:33:45.497Z,41.90
2019-01-11T20:36:49.519Z,51.53
2019-01-11T20:39:58.947Z,49.38
2019-01-11T20:43:01.439Z,49.85
2019-01-11T20:46:10.916Z,44.88
2019-01-11T20:49:13.599Z,46.75
2019-01-11T20:52:15.730Z,46.95
2019-01-11T20:55:46.183Z,55.17
2019-01-11T20:58:47.980Z,42.27
2019-01-11T21:01:38.139Z,53.73
2019-01-11T21:04:47.546Z,56.53
2019-01-11T21:07:37.702Z,64.32
2019-01-11T21:10:47.094Z,44.98
2019-01-11T21:13:49.248Z,75.35
2019-01-11T21:16:58.761Z,39.45
2019-01-11T21:20:01.216Z,46.25
2019-01-11T21:23:03.401Z,46.70
2019-01-11T21:29:20.454Z,41.95
2019-01-11T21:32:29.939Z,50.63
2019-01-11T21:35:32.103Z,45.15
2019-01-11T21:38:34.106Z,47.58
2019-01-11T21:41:43.615Z,55.65
2019-01-11T21:44:43.945Z,58.75
2019-01-11T21:47:46.223Z,43.73
2019-01-11T21:50:55.622Z,33.38
2019-01-11T21:53:58.118Z,47.17
2019-01-11T22:00:22.656Z,44.85
2019-01-11T22:06:40.147Z,43.30
2019-01-11T22:09:30.296Z,47.05
2019-01-11T22:12:32.593Z,44.88
2019-01-11T22:15:41.998Z,46.50
2019-01-11T22:25:02.527Z,58.58
2019-01-11T22:28:04.987Z,46.77
2019-01-11T22:31:14.379Z,46.13
2019-01-11T22:34:16.421Z,41.68
2019-01-11T22:37:25.906Z,40.35
2019-01-11T22:40:27.875Z,38.45
2019-01-11T22:43:30.123Z,43.75
2019-01-11T22:46:39.520Z,51.60
2019-01-11T22:49:41.879Z,43.45
2019-01-11T22:55:58.600Z,44.80
2019-01-11T22:58:59.183Z,35.05
2019-01-11T23:02:02.610Z,32.33
2019-01-11T23:05:06.347Z,37.95
2019-01-11T23:08:36.744Z,44.35
2019-01-11T23:11:43.048Z,47.50
2019-01-11T23:14:45.301Z,44.27
2019-01-11T23:17:54.757Z,38.75
2019-01-11T23:20:56.951Z,40.30
2019-01-11T23:24:06.419Z,40.38
2019-01-11T23:27:08.718Z,49.27
2019-01-11T23:33:26.602Z,36.63
2019-01-11T23:39:43.785Z,38.60
2019-01-11T23:46:00.880Z,39.13
2019-01-11T23:52:18.047Z,43.92
2019-01-11T23:55:27.452Z,46.37
2019-01-11T23:58:27.821Z,42.95
